Martin State Airport Baltimore US
ICAO: KMTN
IATA: MTN
Category: Medium
Scheduled Services: No

Elevation: 21 ft
TransAlt. 18000 ft.

Airport Communications:
POTOMAC APP/DEP:119
ATIS:124.925
AWOS 3:124.925
POTOMAC CLNC DEL:121.8
CTAF:121.3
GND:121.8
135 AG COMD POST:38.59
175 FG COMD POST:34.72
TWR:121.3
UNICOM:122.95

KMTN Zoom In..

If Map Doesn't Load, Click Here

Runways:

(A) RW 15 length 6997 ft width 180 ft
LOC 110.70 / hdg 146

(B) RW 33 length 6997 ft width 180 ft
LOC 110.70 / hdg 326

Location; KMTN
Day. 23 / Time. 21.45 Zulu
* Altimeter: 30.23
* Temperature: 17° c. 62.6°f.
* Wind from: 350° Speed 05 kn.
Dewpoint: 17° c.
Visibility: 7 Statute Miles.
Clouds: Broken 700 ft.
Clouds: Overcast 2500 ft.
Conditions: Light Rain.

KMTN 232145Z 35005KT 7SM -RA BKN007 OVC025 17/17 A3023


Wind From 350°
Speed 05 kn.

 
 
jpsmedia.com for Web Design worldairports.se 2018   terms of use